createdAt,value
2017-07-16T00:00:12.544Z,13.26
2017-07-16T00:02:38.370Z,13.06
2017-07-16T00:05:04.204Z,13.28
2017-07-16T00:07:30.074Z,13.32
2017-07-16T00:09:55.995Z,13.18
2017-07-16T00:12:21.905Z,13.13
2017-07-16T00:14:47.790Z,13.15
2017-07-16T00:17:13.682Z,13.17
2017-07-16T00:19:39.504Z,13.05
2017-07-16T00:22:05.313Z,13.05
2017-07-16T00:24:31.159Z,12.85
2017-07-16T00:26:57.009Z,12.82
2017-07-16T00:29:22.902Z,12.90
2017-07-16T00:31:48.738Z,12.87
2017-07-16T00:34:15.698Z,12.68
2017-07-16T00:36:41.608Z,12.82
2017-07-16T00:39:08.342Z,12.72
2017-07-16T00:41:34.252Z,12.64
2017-07-16T00:44:00.098Z,12.66
2017-07-16T00:46:26.015Z,12.71
2017-07-16T00:48:51.898Z,12.65
2017-07-16T00:51:17.952Z,12.38
2017-07-16T00:53:43.775Z,12.49
2017-07-16T00:56:09.603Z,12.58
2017-07-16T00:58:35.502Z,12.43
2017-07-16T01:01:01.408Z,12.40
2017-07-16T01:03:27.269Z,12.01
2017-07-16T01:05:53.135Z,12.39
2017-07-16T01:08:18.942Z,12.37
2017-07-16T01:10:44.749Z,12.38
2017-07-16T01:13:10.610Z,12.24
2017-07-16T01:15:36.521Z,12.31
2017-07-16T01:18:02.357Z,12.27
2017-07-16T01:20:28.255Z,12.21
2017-07-16T01:22:54.115Z,12.24
2017-07-16T01:25:20.002Z,12.17
2017-07-16T01:27:52.670Z,12.00
2017-07-16T01:30:18.530Z,12.06
2017-07-16T01:32:44.480Z,12.09
2017-07-16T01:35:10.324Z,11.98
2017-07-16T01:37:36.138Z,12.03
2017-07-16T01:40:02.005Z,12.14
2017-07-16T01:42:27.995Z,12.23
2017-07-16T01:44:53.825Z,12.33
2017-07-16T01:47:19.682Z,12.35
2017-07-16T01:49:45.568Z,12.35
2017-07-16T01:52:11.381Z,12.38
2017-07-16T01:54:37.248Z,12.40
2017-07-16T01:57:03.082Z,12.21
2017-07-16T01:59:28.945Z,12.16
2017-07-16T02:01:54.911Z,12.24
2017-07-16T02:04:20.762Z,11.79
2017-07-16T02:06:46.594Z,11.87
2017-07-16T02:09:12.531Z,12.12
2017-07-16T02:11:38.401Z,12.11
2017-07-16T02:14:04.222Z,12.32
2017-07-16T02:16:30.081Z,12.33
2017-07-16T02:18:56.014Z,12.30
2017-07-16T02:21:22.094Z,12.32
2017-07-16T02:23:47.901Z,12.37
2017-07-16T02:26:13.777Z,12.33
2017-07-16T02:28:39.667Z,12.34
2017-07-16T02:31:05.498Z,12.12
2017-07-16T02:33:31.431Z,12.01
2017-07-16T02:35:57.337Z,12.33
2017-07-16T02:38:23.159Z,12.39
2017-07-16T02:40:49.012Z,12.41
2017-07-16T02:43:14.882Z,12.46
2017-07-16T02:45:40.723Z,12.38
2017-07-16T02:48:06.700Z,12.46
2017-07-16T02:50:32.532Z,12.45
2017-07-16T02:52:58.345Z,12.39
2017-07-16T02:55:24.215Z,12.35
2017-07-16T02:57:50.159Z,12.26
2017-07-16T03:00:16.008Z,12.29
2017-07-16T03:02:41.830Z,12.35
2017-07-16T03:05:07.709Z,12.41
2017-07-16T03:07:33.698Z,12.37
2017-07-16T03:09:59.660Z,12.34
2017-07-16T03:12:25.507Z,12.29
2017-07-16T03:14:51.380Z,12.19
2017-07-16T03:17:17.282Z,12.33
2017-07-16T03:19:43.133Z,12.36
2017-07-16T03:22:09.042Z,12.54
2017-07-16T03:24:34.937Z,12.47
2017-07-16T03:27:00.764Z,12.50
2017-07-16T03:29:26.598Z,12.33
2017-07-16T03:31:52.413Z,12.37
2017-07-16T03:34:18.298Z,12.40
2017-07-16T03:36:44.274Z,12.52
2017-07-16T03:39:10.069Z,12.48
2017-07-16T03:41:35.869Z,12.52
2017-07-16T03:44:01.721Z,12.55
2017-07-16T03:46:27.533Z,12.53
2017-07-16T03:48:54.134Z,12.42
2017-07-16T03:51:20.004Z,12.52
2017-07-16T03:53:45.791Z,12.60
2017-07-16T03:56:11.587Z,12.55
2017-07-16T03:58:37.542Z,12.59
2017-07-16T04:01:03.430Z,12.69
2017-07-16T04:03:29.377Z,12.55
2017-07-16T04:05:55.270Z,12.36
2017-07-16T04:08:21.105Z,12.58
2017-07-16T04:10:46.969Z,12.58
2017-07-16T04:13:12.747Z,12.65
2017-07-16T04:15:38.562Z,12.59
2017-07-16T04:18:04.401Z,12.86
2017-07-16T04:20:30.210Z,12.81
2017-07-16T04:22:56.093Z,12.39
2017-07-16T04:25:21.913Z,12.97
2017-07-16T04:27:47.708Z,13.11
2017-07-16T04:30:13.590Z,13.16
2017-07-16T04:32:39.490Z,13.23
2017-07-16T04:35:05.308Z,13.22
2017-07-16T04:37:31.290Z,13.36
2017-07-16T04:39:57.182Z,13.41
2017-07-16T04:42:23.049Z,13.50
2017-07-16T04:44:48.842Z,13.67
2017-07-16T04:47:14.634Z,13.57
2017-07-16T04:49:40.462Z,13.55
2017-07-16T04:52:06.279Z,13.89
2017-07-16T04:54:32.135Z,14.10
2017-07-16T04:56:57.975Z,14.02
2017-07-16T04:59:24.015Z,14.17
2017-07-16T05:01:49.935Z,14.17
2017-07-16T05:04:15.861Z,14.17
2017-07-16T05:06:42.369Z,14.11
2017-07-16T05:09:08.282Z,13.86
2017-07-16T05:11:34.105Z,14.09
2017-07-16T05:14:00.977Z,14.12
2017-07-16T05:16:27.497Z,14.24
2017-07-16T05:18:53.354Z,14.29
2017-07-16T05:21:19.184Z,14.32
2017-07-16T05:23:45.067Z,14.10
2017-07-16T05:26:10.857Z,14.57
2017-07-16T05:28:36.724Z,14.87
2017-07-16T05:31:02.731Z,14.74
2017-07-16T05:33:28.755Z,14.81
2017-07-16T05:35:54.821Z,14.71
2017-07-16T05:38:20.689Z,15.09
2017-07-16T05:40:46.531Z,15.36
2017-07-16T05:43:12.438Z,15.38
2017-07-16T05:45:38.355Z,15.65
2017-07-16T05:48:04.198Z,15.68
2017-07-16T05:50:30.058Z,15.84
2017-07-16T05:52:55.903Z,16.18
2017-07-16T05:55:21.694Z,16.21
2017-07-16T05:57:47.573Z,16.62
2017-07-16T06:00:14.358Z,16.67
2017-07-16T06:02:40.200Z,16.62
2017-07-16T06:05:06.271Z,16.97
2017-07-16T06:07:32.247Z,17.39
2017-07-16T06:09:58.254Z,17.22
2017-07-16T06:12:24.345Z,17.53
2017-07-16T06:14:50.318Z,17.81
2017-07-16T06:17:16.132Z,18.05
2017-07-16T06:19:42.165Z,18.39
2017-07-16T06:22:08.177Z,18.74
2017-07-16T06:24:34.039Z,18.81
2017-07-16T06:26:59.943Z,18.72
2017-07-16T06:29:25.834Z,18.55
2017-07-16T06:31:51.674Z,18.74
2017-07-16T06:34:17.600Z,18.86
2017-07-16T06:36:43.441Z,18.87
2017-07-16T06:39:24.259Z,19.07
2017-07-16T06:41:50.137Z,19.39
2017-07-16T06:44:16.018Z,19.61
2017-07-16T06:46:41.890Z,19.91
2017-07-16T06:49:07.821Z,19.92
2017-07-16T06:51:33.862Z,19.60
2017-07-16T06:53:59.734Z,19.73
2017-07-16T06:56:25.545Z,19.60
2017-07-16T06:58:51.431Z,19.47
2017-07-16T07:01:17.274Z,19.86
2017-07-16T07:03:43.187Z,19.65
2017-07-16T07:06:09.033Z,19.52
2017-07-16T07:08:34.849Z,19.72
2017-07-16T07:11:00.658Z,19.57
2017-07-16T07:13:26.502Z,19.63
2017-07-16T07:15:52.307Z,19.46
2017-07-16T07:18:18.183Z,19.22
2017-07-16T07:20:44.126Z,19.60
2017-07-16T07:23:10.770Z,19.53
2017-07-16T07:25:36.606Z,19.46
2017-07-16T07:28:02.445Z,19.50
2017-07-16T07:30:28.337Z,19.73
2017-07-16T07:32:54.214Z,19.71
2017-07-16T07:35:20.033Z,19.58
2017-07-16T07:37:45.898Z,19.42
2017-07-16T07:40:11.729Z,19.66
2017-07-16T07:42:37.533Z,20.00
2017-07-16T07:45:03.409Z,19.96
2017-07-16T07:47:29.246Z,20.15
2017-07-16T07:49:55.246Z,20.52
2017-07-16T07:52:21.081Z,20.84
2017-07-16T07:54:47.117Z,21.03
2017-07-16T07:57:13.052Z,20.92
2017-07-16T07:59:38.958Z,20.57
2017-07-16T08:02:05.037Z,21.04
2017-07-16T08:04:30.912Z,21.32
2017-07-16T08:06:57.042Z,21.30
2017-07-16T08:09:22.942Z,21.51
2017-07-16T08:11:48.784Z,21.38
2017-07-16T08:14:14.634Z,21.51
2017-07-16T08:16:40.498Z,21.78
2017-07-16T08:19:06.572Z,21.79
2017-07-16T08:21:32.471Z,21.89
2017-07-16T08:23:58.369Z,22.33
2017-07-16T08:26:24.240Z,22.38
2017-07-16T08:28:50.131Z,22.49
2017-07-16T08:31:15.959Z,22.14
2017-07-16T08:33:41.866Z,22.33
2017-07-16T08:36:07.776Z,22.32
2017-07-16T08:38:33.716Z,22.45
2017-07-16T08:40:59.762Z,22.39
2017-07-16T08:43:25.795Z,22.30
2017-07-16T08:45:51.674Z,22.14
2017-07-16T08:48:17.659Z,22.91
2017-07-16T08:50:43.532Z,22.56
2017-07-16T08:53:09.410Z,22.72
2017-07-16T08:55:35.274Z,23.16
2017-07-16T08:58:01.170Z,22.64
2017-07-16T09:00:27.094Z,23.26
2017-07-16T09:02:53.034Z,23.40
2017-07-16T09:05:18.856Z,23.69
2017-07-16T09:07:44.684Z,24.40
2017-07-16T09:10:10.586Z,24.12
2017-07-16T09:12:36.516Z,24.31
2017-07-16T09:15:02.408Z,24.41
2017-07-16T09:17:28.314Z,24.27
2017-07-16T09:19:54.173Z,23.42
2017-07-16T09:22:20.042Z,23.08
2017-07-16T09:24:45.984Z,23.49
2017-07-16T09:27:11.867Z,23.51
2017-07-16T09:29:37.708Z,23.41
2017-07-16T09:32:03.705Z,23.41
2017-07-16T09:34:29.549Z,24.52
2017-07-16T09:36:55.419Z,24.77
2017-07-16T09:39:21.446Z,24.95
2017-07-16T09:41:47.472Z,25.44
2017-07-16T09:44:13.423Z,25.03
2017-07-16T09:46:39.468Z,25.01
2017-07-16T09:49:05.517Z,24.55
2017-07-16T09:51:31.513Z,24.66
2017-07-16T09:53:57.344Z,24.53
2017-07-16T09:56:23.401Z,24.23
2017-07-16T09:58:49.386Z,24.50
2017-07-16T10:01:15.946Z,24.18
2017-07-16T10:03:41.908Z,23.95
2017-07-16T10:06:07.852Z,23.82
2017-07-16T10:08:33.674Z,24.31
2017-07-16T10:10:59.727Z,24.46
2017-07-16T10:13:25.790Z,25.02
2017-07-16T10:15:51.692Z,25.51
2017-07-16T10:18:18.967Z,25.96
2017-07-16T10:20:45.066Z,25.80
2017-07-16T10:23:11.084Z,25.34
2017-07-16T10:25:36.964Z,25.91
2017-07-16T10:28:02.858Z,25.47
2017-07-16T10:30:28.738Z,25.51
2017-07-16T10:32:54.574Z,25.30
2017-07-16T10:35:20.647Z,25.66
2017-07-16T10:37:46.507Z,26.22
2017-07-16T10:40:12.408Z,26.84
2017-07-16T10:42:38.347Z,26.66
2017-07-16T10:45:04.176Z,26.77
2017-07-16T10:47:30.132Z,27.79
2017-07-16T10:49:55.992Z,28.13
2017-07-16T10:52:21.874Z,27.49
2017-07-16T11:38:26.276Z,26.08
2017-07-16T11:40:52.138Z,26.37
2017-07-16T11:43:18.058Z,27.21
2017-07-16T11:45:43.977Z,26.26
2017-07-16T11:48:09.953Z,27.26
2017-07-16T11:50:35.799Z,28.02
2017-07-16T11:53:01.652Z,27.59
2017-07-16T11:55:27.628Z,27.30
2017-07-16T11:57:53.485Z,26.47
2017-07-16T12:00:19.417Z,26.45
2017-07-16T12:02:45.365Z,26.29
2017-07-16T12:05:11.357Z,26.46
2017-07-16T12:07:37.249Z,26.54
2017-07-16T12:10:03.163Z,26.73
2017-07-16T12:12:29.015Z,26.66
2017-07-16T12:14:54.948Z,27.02
2017-07-16T12:17:20.808Z,27.04
2017-07-16T12:19:46.670Z,26.50
2017-07-16T12:22:12.650Z,26.49
2017-07-16T12:24:38.533Z,26.50
2017-07-16T12:27:04.404Z,26.74
2017-07-16T12:29:30.272Z,26.81
2017-07-16T12:31:56.151Z,25.77
2017-07-16T12:34:22.108Z,25.62
2017-07-16T12:36:48.017Z,25.74
2017-07-16T12:39:13.975Z,26.27
2017-07-16T12:41:39.828Z,25.61
2017-07-16T12:44:05.662Z,26.12
2017-07-16T12:46:31.788Z,25.72
2017-07-16T12:48:57.635Z,25.73
2017-07-16T12:51:23.469Z,24.84
2017-07-16T12:53:49.333Z,25.03
2017-07-16T12:56:15.362Z,25.57
2017-07-16T12:58:41.394Z,26.75
2017-07-16T13:01:07.367Z,28.04
2017-07-16T13:03:33.524Z,28.11
2017-07-16T13:05:59.456Z,27.21
2017-07-16T13:08:25.405Z,26.77
2017-07-16T13:10:51.349Z,25.94
2017-07-16T13:13:17.294Z,26.13
2017-07-16T13:15:43.400Z,26.29
2017-07-16T13:18:09.353Z,25.85
2017-07-16T13:20:35.397Z,25.84
2017-07-16T13:23:01.385Z,26.01
2017-07-16T13:25:27.231Z,25.54
2017-07-16T13:27:53.081Z,25.79
2017-07-16T13:30:19.050Z,25.90
2017-07-16T13:32:45.173Z,26.06
2017-07-16T13:35:11.057Z,26.45
2017-07-16T13:37:36.944Z,26.35
2017-07-16T13:40:03.015Z,26.11
2017-07-16T13:42:28.913Z,26.39
2017-07-16T13:44:54.736Z,26.23
2017-07-16T13:47:20.628Z,27.51
2017-07-16T13:49:46.670Z,28.62
2017-07-16T13:52:12.518Z,29.18
2017-07-16T13:54:38.442Z,28.06
2017-07-16T13:57:04.305Z,27.58
2017-07-16T13:59:30.784Z,28.54
2017-07-16T14:01:56.627Z,28.93
2017-07-16T14:04:22.524Z,28.94
2017-07-16T14:06:48.412Z,28.69
2017-07-16T14:09:14.255Z,28.48
2017-07-16T14:11:40.132Z,28.52
2017-07-16T14:14:06.109Z,28.18
2017-07-16T14:16:32.716Z,29.17
2017-07-16T14:18:58.597Z,28.03
2017-07-16T14:21:24.429Z,28.23
2017-07-16T14:23:50.302Z,28.86
2017-07-16T14:26:16.189Z,29.68
2017-07-16T14:28:42.133Z,29.05
2017-07-16T14:31:08.163Z,29.01
2017-07-16T14:33:34.203Z,29.20
2017-07-16T14:36:00.117Z,29.10
2017-07-16T14:38:26.020Z,28.84
2017-07-16T14:40:52.009Z,28.01
2017-07-16T14:43:17.887Z,28.59
2017-07-16T14:45:43.892Z,28.88
2017-07-16T14:48:09.824Z,28.90
2017-07-16T14:50:35.778Z,27.79
2017-07-16T14:53:01.684Z,28.30
2017-07-16T14:55:27.521Z,28.92
2017-07-16T14:57:53.451Z,28.48
2017-07-16T15:00:19.309Z,28.41
2017-07-16T15:02:45.201Z,28.44
2017-07-16T15:05:11.456Z,28.47
2017-07-16T15:07:37.364Z,28.73
2017-07-16T15:10:03.204Z,28.35
2017-07-16T15:12:29.040Z,27.79
2017-07-16T15:14:54.900Z,27.80
2017-07-16T15:17:20.748Z,27.53
2017-07-16T15:19:46.767Z,27.06
2017-07-16T15:22:12.723Z,27.15
2017-07-16T15:24:38.578Z,27.50
2017-07-16T15:27:04.445Z,27.68
2017-07-16T15:29:30.389Z,27.85
2017-07-16T15:31:56.260Z,27.81
2017-07-16T15:34:22.194Z,27.71
2017-07-16T15:36:48.104Z,27.58
2017-07-16T15:39:14.058Z,27.15
2017-07-16T15:41:39.953Z,27.39
2017-07-16T15:44:06.020Z,27.28
2017-07-16T15:46:31.997Z,27.50
2017-07-16T15:48:57.925Z,26.87
2017-07-16T15:51:24.813Z,27.24
2017-07-16T15:53:50.870Z,27.14
2017-07-16T15:56:16.813Z,26.79
2017-07-16T15:58:42.781Z,26.58
2017-07-16T16:01:08.641Z,26.69
2017-07-16T16:03:34.576Z,26.06
2017-07-16T16:06:00.445Z,25.96
2017-07-16T16:08:26.375Z,25.77
2017-07-16T16:10:52.372Z,25.58
2017-07-16T16:13:18.247Z,25.54
2017-07-16T16:15:44.184Z,25.91
2017-07-16T16:18:10.217Z,25.93
2017-07-16T16:20:36.151Z,25.94
2017-07-16T16:23:02.004Z,26.02
2017-07-16T16:25:27.857Z,25.75
2017-07-16T16:27:53.828Z,25.94
2017-07-16T16:30:19.664Z,25.73
2017-07-16T16:32:45.552Z,25.74
2017-07-16T16:35:11.583Z,25.75
2017-07-16T16:37:37.455Z,25.60
2017-07-16T16:40:03.278Z,25.82
2017-07-16T16:42:29.190Z,25.37
2017-07-16T16:44:55.205Z,25.38
2017-07-16T16:47:21.232Z,25.89
2017-07-16T16:49:47.288Z,25.77
2017-07-16T16:52:13.233Z,25.97
2017-07-16T16:54:39.059Z,26.29
2017-07-16T16:57:04.904Z,25.75
2017-07-16T16:59:30.907Z,25.54
2017-07-16T17:01:56.760Z,25.26
2017-07-16T17:04:22.732Z,25.65
2017-07-16T17:06:48.587Z,25.23
2017-07-16T17:09:14.612Z,25.27
2017-07-16T17:11:40.477Z,25.49
2017-07-16T17:14:06.471Z,25.46
2017-07-16T17:16:32.493Z,25.23
2017-07-16T17:18:58.561Z,25.08
2017-07-16T17:21:24.523Z,25.14
2017-07-16T17:23:50.559Z,25.04
2017-07-16T17:26:16.609Z,25.15
2017-07-16T17:28:42.610Z,25.01
2017-07-16T17:31:08.592Z,25.14
2017-07-16T17:33:34.472Z,25.30
2017-07-16T17:36:00.371Z,25.07
2017-07-16T17:38:26.258Z,25.10
2017-07-16T17:40:52.301Z,24.87
2017-07-16T17:43:25.077Z,24.75
2017-07-16T17:45:51.145Z,24.65
2017-07-16T17:48:17.048Z,24.50
2017-07-16T17:50:42.895Z,24.53
2017-07-16T17:53:08.764Z,24.21
2017-07-16T17:55:34.624Z,24.37
2017-07-16T17:58:00.575Z,24.46
2017-07-16T18:00:26.644Z,24.49
2017-07-16T18:02:52.482Z,24.21
2017-07-16T18:05:18.309Z,24.41
2017-07-16T18:07:44.167Z,24.11
2017-07-16T18:10:10.051Z,23.86
2017-07-16T18:12:35.957Z,23.97
2017-07-16T18:15:01.827Z,23.78
2017-07-16T18:17:27.925Z,23.77
2017-07-16T18:19:53.816Z,23.52
2017-07-16T18:22:19.735Z,23.52
2017-07-16T18:24:45.753Z,23.34
2017-07-16T18:27:11.784Z,23.18
2017-07-16T18:29:37.822Z,23.07
2017-07-16T18:32:03.763Z,23.10
2017-07-16T18:34:29.630Z,23.17
2017-07-16T18:36:55.457Z,22.91
2017-07-16T18:39:21.369Z,22.56
2017-07-16T18:41:47.235Z,22.09
2017-07-16T18:44:13.124Z,22.22
2017-07-16T18:46:38.992Z,22.18
2017-07-16T18:49:04.980Z,22.06
2017-07-16T18:51:30.902Z,21.99
2017-07-16T18:53:57.826Z,21.81
2017-07-16T18:56:23.843Z,22.00
2017-07-16T18:58:49.908Z,21.98
2017-07-16T19:01:15.827Z,21.88
2017-07-16T19:03:41.736Z,21.73
2017-07-16T19:06:07.661Z,21.79
2017-07-16T19:08:33.618Z,21.02
2017-07-16T19:10:59.543Z,21.54
2017-07-16T19:13:25.396Z,21.26
2017-07-16T19:15:51.246Z,21.36
2017-07-16T19:18:17.210Z,21.25
2017-07-16T19:20:43.814Z,21.27
2017-07-16T19:23:09.688Z,21.11
2017-07-16T19:25:35.744Z,20.99
2017-07-16T19:28:01.717Z,20.74
2017-07-16T19:30:27.543Z,20.78
2017-07-16T19:32:53.527Z,20.61
2017-07-16T19:35:19.489Z,20.54
2017-07-16T19:37:45.349Z,20.51
2017-07-16T19:40:11.186Z,20.52
2017-07-16T19:42:37.131Z,20.50
2017-07-16T19:45:03.060Z,20.37
2017-07-16T19:47:28.894Z,20.37
2017-07-16T19:49:54.988Z,20.46
2017-07-16T19:52:21.008Z,20.40
2017-07-16T19:54:46.886Z,20.33
2017-07-16T19:57:12.856Z,20.09
2017-07-16T19:59:38.761Z,20.00
2017-07-16T20:02:04.684Z,19.97
2017-07-16T20:04:30.706Z,20.10
2017-07-16T20:06:56.627Z,20.10
2017-07-16T20:09:22.607Z,20.15
2017-07-16T20:11:48.456Z,19.91
2017-07-16T20:14:16.506Z,19.85
2017-07-16T20:16:42.448Z,19.87
2017-07-16T20:19:08.369Z,19.92
2017-07-16T20:21:34.317Z,19.62
2017-07-16T20:24:00.192Z,19.47
2017-07-16T20:26:26.112Z,19.37
2017-07-16T20:28:52.075Z,19.43
2017-07-16T20:31:17.949Z,19.44
2017-07-16T20:33:43.890Z,19.35
2017-07-16T20:36:09.753Z,19.26
2017-07-16T20:38:35.637Z,19.12
2017-07-16T20:41:01.549Z,19.05
2017-07-16T20:43:27.384Z,19.06
2017-07-16T20:45:53.301Z,19.19
2017-07-16T20:48:19.249Z,19.03
2017-07-16T20:50:45.092Z,18.98
2017-07-16T20:53:10.924Z,18.97
2017-07-16T20:55:36.981Z,18.81
2017-07-16T20:58:02.940Z,18.97
2017-07-16T21:00:28.836Z,18.82
2017-07-16T21:02:54.741Z,18.81
2017-07-16T21:05:20.635Z,18.59
2017-07-16T21:07:47.461Z,18.54
2017-07-16T21:10:13.301Z,18.59
2017-07-16T21:12:39.225Z,18.55
2017-07-16T21:15:05.893Z,18.39
2017-07-16T21:17:31.749Z,18.50
2017-07-16T21:19:58.132Z,18.44
2017-07-16T21:22:23.963Z,18.33
2017-07-16T21:24:49.795Z,18.31
2017-07-16T21:27:15.762Z,18.32
2017-07-16T21:29:41.624Z,18.31
2017-07-16T21:32:07.472Z,18.09
2017-07-16T21:34:33.497Z,18.16
2017-07-16T21:36:59.318Z,18.21
2017-07-16T21:39:25.166Z,18.15
2017-07-16T21:41:51.164Z,18.05
2017-07-16T21:44:17.017Z,18.14
2017-07-16T21:46:43.072Z,17.95
2017-07-16T21:49:08.971Z,17.87
2017-07-16T21:51:34.844Z,17.98
2017-07-16T21:54:00.717Z,17.94
2017-07-16T21:56:26.653Z,17.79
2017-07-16T21:58:52.541Z,17.92
2017-07-16T22:01:18.589Z,17.89
2017-07-16T22:03:44.492Z,17.77
2017-07-16T22:06:10.385Z,17.71
2017-07-16T22:08:36.240Z,17.73
2017-07-16T22:11:02.199Z,17.84
2017-07-16T22:13:28.096Z,17.73
2017-07-16T22:15:53.992Z,17.65
2017-07-16T22:18:20.706Z,17.60
2017-07-16T22:20:46.543Z,17.58
2017-07-16T22:23:12.507Z,17.47
2017-07-16T22:25:38.388Z,17.42
2017-07-16T22:28:04.737Z,17.26
2017-07-16T22:30:30.594Z,16.98
2017-07-16T22:32:56.501Z,17.27
2017-07-16T22:35:22.399Z,17.23
2017-07-16T22:37:48.313Z,17.10
2017-07-16T22:40:14.255Z,17.18
2017-07-16T22:42:40.102Z,17.19
2017-07-16T22:45:06.188Z,17.19
2017-07-16T22:47:32.152Z,17.20
2017-07-16T22:49:58.036Z,17.17
2017-07-16T22:52:23.984Z,17.17
2017-07-16T22:54:49.831Z,17.17
2017-07-16T22:57:15.692Z,17.14
2017-07-16T22:59:41.652Z,17.03
2017-07-16T23:02:07.508Z,16.90
2017-07-16T23:04:33.527Z,16.99
2017-07-16T23:06:59.496Z,17.05
2017-07-16T23:09:25.891Z,16.91
2017-07-16T23:11:52.609Z,16.61
2017-07-16T23:14:18.672Z,16.81
2017-07-16T23:16:51.717Z,16.79
2017-07-16T23:19:17.663Z,16.69
2017-07-16T23:21:43.620Z,16.80
2017-07-16T23:24:09.563Z,16.84
2017-07-16T23:26:35.951Z,16.85
2017-07-16T23:29:01.816Z,16.98
2017-07-16T23:31:27.684Z,16.79
2017-07-16T23:33:53.612Z,16.88
2017-07-16T23:36:19.448Z,16.75
2017-07-16T23:38:45.343Z,16.86
2017-07-16T23:41:11.372Z,16.78
2017-07-16T23:43:37.316Z,16.80
2017-07-16T23:46:03.219Z,16.98
2017-07-16T23:48:29.192Z,16.74
2017-07-16T23:50:55.028Z,16.95
2017-07-16T23:53:20.941Z,16.49
2017-07-16T23:55:46.921Z,16.40
2017-07-16T23:58:13.753Z,16.74
